East Albany, Vermont
Current Conditions -  °F | °C
As of 11:15 PM on Friday 19 Dec 2014 (Local Time) from KEFK Reporting Station
Clear Clear  
Wind Chill: 12°   Ceiling: Unl
Heat Index: 12°   Visibility: 10mi
Dew Point: 10°   Wind: 3mph
Humidity: 90%   Direction: 290°WNW
Pressure: 30.19"   Gusts: NA
Location:  44.8143°N, 72.284°W
Report Text: KEFK 200415Z AUTO 29003KT 10SM CLR M11/M12 A3019 RMK AO2 T11121125
Loading
Personal Weather Stations






























Interactive Weather Map New forecast layout! Learn more

10-Day Weather Forecast

Advertisements
Track Severe Weather on mobile